Terminal Aerodrome Forecast
Issued by NWS Omaha/Valley, NE

Home | Current Version | Previous Version | Graphics & Text | Print | Product List | Glossary On
Versions: 1 2 3 4 5 6 7 8 9 10 11 12 13 14 15
000
FTUS43 KOAX 010824 AAB
TAFOFK
TAF AMD
KOFK 010824Z 0108/0206 03012KT P6SM -RA OVC010
      TEMPO 0109/0112 5SM -RA BR OVC007
     FM011200 01013G20KT 5SM -RA BR OVC007
     FM011800 01013G20KT P6SM OVC015
     FM012100 36012KT P6SM OVC050
     FM020200 01008KT P6SM SCT250=

USA.gov is the U.S. government's official web portal to all federal, state and local government web resources and services.